Time;durP1;ratioP1;P1;durP2;ratioP2;P2;SDS_P1;SDS_P2;PMS_P1;PMS_P2;Temp;Humidity;BMP_temperature;BMP_pressure;BME280_temperature;BME280_humidity;BME280_pressure;Samples;Min_cycle;Max_cycle;Signal;HPM_P1;HPM_P2
2024/01/18 00:01:10;;;;;;;21.63;11.65;;;-1.00;99.90;;;;;;5071952;28;20052;-69
2024/01/18 00:03:42;;;;;;;19.20;11.48;;;-1.10;99.90;;;;;;5071932;28;20115;-69
2024/01/18 00:06:08;;;;;;;15.15;10.75;;;-1.00;99.90;;;;;;5073330;28;20051;-69
2024/01/18 00:08:33;;;;;;;20.17;10.70;;;-1.10;99.90;;;;;;5055040;28;20409;-69
2024/01/18 00:11:00;;;;;;;20.45;9.93;;;-1.10;99.90;;;;;;5071855;28;20040;-69
2024/01/18 00:13:27;;;;;;;17.20;9.50;;;-1.00;99.90;;;;;;5073393;28;20040;-69
2024/01/18 00:15:52;;;;;;;16.60;8.57;;;-1.00;99.90;;;;;;5072910;28;20508;-69
2024/01/18 00:18:18;;;;;;;15.18;8.18;;;-0.90;99.90;;;;;;5073267;28;20036;-69
2024/01/18 00:20:43;;;;;;;17.10;8.40;;;-0.90;99.90;;;;;;5071755;28;20095;-69
2024/01/18 00:23:09;;;;;;;12.55;7.07;;;-0.90;99.90;;;;;;5071751;28;20041;-69
2024/01/18 00:25:34;;;;;;;15.32;6.78;;;-0.90;99.90;;;;;;5071619;28;20040;-69
2024/01/18 00:28:00;;;;;;;19.35;7.05;;;-0.90;99.90;;;;;;5076582;28;20072;-69
2024/01/18 00:30:25;;;;;;;13.13;6.80;;;-0.80;99.90;;;;;;5077009;28;20106;-69
2024/01/18 00:32:51;;;;;;;15.23;6.80;;;-0.80;99.90;;;;;;5076046;28;20040;-69
2024/01/18 00:35:17;;;;;;;12.70;6.97;;;-0.80;99.90;;;;;;5075686;28;20458;-70
2024/01/18 00:37:42;;;;;;;14.90;7.22;;;-0.80;99.90;;;;;;5075935;28;20052;-70
2024/01/18 00:40:08;;;;;;;17.05;7.90;;;-0.80;99.90;;;;;;5075711;28;20041;-70
2024/01/18 00:42:34;;;;;;;12.02;6.88;;;-0.90;99.90;;;;;;5075864;28;20416;-70
2024/01/18 00:44:59;;;;;;;13.57;6.95;;;-0.90;99.90;;;;;;5058748;28;20041;-70
2024/01/18 00:47:25;;;;;;;13.07;6.57;;;-0.90;99.90;;;;;;5075493;28;20407;-70
2024/01/18 00:49:51;;;;;;;19.65;6.35;;;-1.00;99.90;;;;;;5075532;28;20041;-70
2024/01/18 00:52:16;;;;;;;13.77;6.18;;;-0.90;99.90;;;;;;5076931;28;20036;-70
2024/01/18 00:54:42;;;;;;;10.45;5.30;;;-0.90;99.90;;;;;;5075322;28;20040;-70
2024/01/18 00:57:07;;;;;;;12.73;5.65;;;-0.90;99.90;;;;;;5075335;28;20044;-70
2024/01/18 00:59:33;;;;;;;12.13;6.05;;;-0.90;99.90;;;;;;5076808;28;20045;-70
2024/01/18 01:01:59;;;;;;;15.65;5.95;;;-0.90;99.90;;;;;;5076777;28;20037;-70
2024/01/18 01:04:24;;;;;;;12.85;5.07;;;-0.90;99.90;;;;;;5076637;28;20075;-70
2024/01/18 01:06:50;;;;;;;11.13;4.50;;;-1.00;99.90;;;;;;5076576;28;20028;-70
2024/01/18 01:09:15;;;;;;;10.43;5.10;;;-0.90;99.90;;;;;;5076268;28;20043;-70
2024/01/18 01:11:41;;;;;;;11.25;4.65;;;-0.90;99.90;;;;;;5075366;28;20081;-70
2024/01/18 01:14:06;;;;;;;10.98;4.53;;;-1.00;99.90;;;;;;5074916;28;20059;-70
2024/01/18 01:16:32;;;;;;;9.48;4.72;;;-0.90;99.90;;;;;;5075225;28;20094;-70
2024/01/18 01:18:58;;;;;;;11.70;4.22;;;-0.90;99.90;;;;;;5076412;28;20389;-70
2024/01/18 01:21:23;;;;;;;10.43;4.95;;;-0.90;99.90;;;;;;5076372;28;20033;-70
2024/01/18 01:23:51;;;;;;;9.40;4.20;;;-0.80;99.90;;;;;;5074906;28;20040;-70
2024/01/18 01:26:17;;;;;;;8.80;3.90;;;-0.90;99.90;;;;;;5076041;28;20041;-70
2024/01/18 01:28:43;;;;;;;9.85;3.80;;;-0.80;99.90;;;;;;5074371;28;20078;-70
2024/01/18 01:31:08;;;;;;;9.73;4.65;;;-0.90;99.90;;;;;;5074779;28;20052;-70
2024/01/18 01:33:35;;;;;;;13.00;4.72;;;-1.00;99.90;;;;;;5076043;28;20040;-70
2024/01/18 01:36:02;;;;;;;10.52;3.80;;;-1.00;99.90;;;;;;5074780;28;20048;-70
2024/01/18 01:38:28;;;;;;;6.70;3.45;;;-1.00;99.90;;;;;;5074456;28;20531;-70
2024/01/18 01:40:54;;;;;;;7.50;3.10;;;-0.90;99.90;;;;;;5074512;28;20037;-70
2024/01/18 01:43:19;;;;;;;10.35;3.92;;;-0.90;99.90;;;;;;5075572;28;20037;-70
2024/01/18 01:45:45;;;;;;;8.38;3.58;;;-1.00;99.90;;;;;;5075902;28;20044;-70
2024/01/18 01:48:11;;;;;;;10.88;4.13;;;-1.00;99.90;;;;;;5074303;28;20111;-70
2024/01/18 01:50:37;;;;;;;10.13;3.70;;;-1.00;99.90;;;;;;5074378;28;20044;-70
2024/01/18 01:53:04;;;;;;;9.95;3.70;;;-1.10;99.90;;;;;;5074291;28;20048;-70
2024/01/18 01:55:30;;;;;;;7.38;3.45;;;-1.00;99.90;;;;;;5074214;28;20119;-70
2024/01/18 01:57:56;;;;;;;10.75;4.40;;;-1.10;99.90;;;;;;5074183;28;20052;-70
2024/01/18 02:00:22;;;;;;;10.10;3.80;;;-1.10;99.90;;;;;;5075693;28;20036;-70
2024/01/18 02:02:49;;;;;;;9.20;3.75;;;-1.20;99.90;;;;;;5074104;28;20519;-70
2024/01/18 02:05:15;;;;;;;10.68;3.75;;;-1.20;99.90;;;;;;5074192;28;20409;-70
2024/01/18 02:07:40;;;;;;;9.50;4.03;;;-1.20;99.90;;;;;;5073945;28;20033;-70
2024/01/18 02:10:07;;;;;;;11.70;3.58;;;-1.30;99.90;;;;;;5075530;28;20186;-70
2024/01/18 02:12:33;;;;;;;13.23;4.47;;;-1.30;99.90;;;;;;5073920;28;20452;-70
2024/01/18 02:14:59;;;;;;;7.93;3.90;;;-1.30;99.90;;;;;;5073817;28;20068;-70
2024/01/18 02:17:25;;;;;;;9.98;4.22;;;-1.30;99.90;;;;;;5075374;28;20130;-70
2024/01/18 02:19:50;;;;;;;11.88;4.35;;;-1.40;99.90;;;;;;5074089;28;20409;-70
2024/01/18 02:22:17;;;;;;;8.07;4.30;;;-1.40;99.90;;;;;;5073734;28;20519;-70
2024/01/18 02:25:03;;;;;;;9.88;4.15;;;-1.40;99.90;;;;;;5073600;28;20119;-70
2024/01/18 02:27:29;;;;;;;8.27;3.92;;;-1.40;99.90;;;;;;5075116;28;20049;-70
2024/01/18 02:29:54;;;;;;;10.85;4.05;;;-1.40;99.90;;;;;;5073583;28;20040;-70
2024/01/18 02:32:20;;;;;;;7.55;3.30;;;-1.40;99.90;;;;;;5075081;28;20043;-70
2024/01/18 02:34:46;;;;;;;4.95;2.97;;;-1.40;99.90;;;;;;5074971;28;20499;-70
2024/01/18 02:37:11;;;;;;;7.13;3.05;;;-1.50;99.90;;;;;;5073482;28;20047;-70
2024/01/18 02:39:37;;;;;;;10.05;3.30;;;-1.50;99.90;;;;;;5074978;28;20063;-70
2024/01/18 02:42:03;;;;;;;8.98;3.15;;;-1.50;99.90;;;;;;5073369;28;20040;-70
2024/01/18 02:44:30;;;;;;;9.57;3.33;;;-1.50;99.90;;;;;;5073313;28;20085;-70
2024/01/18 02:46:55;;;;;;;10.60;3.63;;;-1.50;99.90;;;;;;5073208;28;20048;-70
2024/01/18 02:49:21;;;;;;;9.95;3.25;;;-1.60;99.90;;;;;;5072988;28;20052;-70
2024/01/18 02:51:47;;;;;;;12.35;3.08;;;-1.60;99.90;;;;;;5073175;28;20497;-70
2024/01/18 02:54:12;;;;;;;9.75;2.78;;;-1.60;99.90;;;;;;5073045;28;20508;-70
2024/01/18 02:56:38;;;;;;;5.30;2.10;;;-1.70;99.90;;;;;;5073055;28;20036;-69
2024/01/18 02:59:04;;;;;;;4.95;2.20;;;-1.60;99.90;;;;;;5074528;28;20064;-69
2024/01/18 03:01:30;;;;;;;5.78;1.92;;;-1.70;99.90;;;;;;5056287;28;20477;-69
2024/01/18 03:03:56;;;;;;;5.38;2.15;;;-1.70;99.90;;;;;;5074391;28;20047;-69
2024/01/18 03:06:22;;;;;;;4.97;2.33;;;-1.60;99.90;;;;;;5072851;28;20120;-69
2024/01/18 03:08:48;;;;;;;7.32;2.55;;;-1.70;99.90;;;;;;5072788;28;20048;-69
2024/01/18 03:11:14;;;;;;;6.53;2.20;;;-1.70;99.90;;;;;;5072744;28;20063;-69
2024/01/18 03:13:39;;;;;;;8.13;2.85;;;-1.70;99.90;;;;;;5073040;28;20036;-69
2024/01/18 03:16:06;;;;;;;6.82;3.05;;;-1.70;99.90;;;;;;5074116;28;20086;-69
2024/01/18 03:18:34;;;;;;;5.95;2.95;;;-1.70;99.90;;;;;;5073741;28;20440;-70
2024/01/18 03:20:59;;;;;;;10.20;2.38;;;-1.60;99.90;;;;;;5074012;28;20097;-70
2024/01/18 03:23:25;;;;;;;10.88;2.47;;;-1.70;99.90;;;;;;5072527;28;20044;-70
2024/01/18 03:25:51;;;;;;;6.93;2.47;;;-1.60;99.90;;;;;;5073940;28;20033;-70
2024/01/18 03:28:16;;;;;;;6.55;2.10;;;-1.60;99.90;;;;;;5072369;28;20086;-70
2024/01/18 03:30:42;;;;;;;10.73;2.00;;;-1.50;99.90;;;;;;5072705;28;20119;-70
2024/01/18 03:33:07;;;;;;;7.80;2.05;;;-1.50;99.90;;;;;;5072364;28;20523;-70
2024/01/18 03:35:33;;;;;;;5.43;2.00;;;-1.50;99.90;;;;;;5072259;28;20041;-70
2024/01/18 03:37:58;;;;;;;7.57;1.80;;;-1.50;99.90;;;;;;5073786;28;20116;-70
2024/01/18 03:40:24;;;;;;;8.15;1.67;;;-1.50;99.90;;;;;;5072251;28;20087;-70
2024/01/18 03:42:50;;;;;;;7.20;1.58;;;-1.50;99.90;;;;;;5072227;28;20033;-70
2024/01/18 03:45:15;;;;;;;6.90;1.90;;;-1.50;99.90;;;;;;5071980;28;20093;-70
2024/01/18 03:47:41;;;;;;;7.07;2.15;;;-1.50;99.90;;;;;;5072235;28;20044;-70
2024/01/18 03:50:07;;;;;;;4.38;1.75;;;-1.60;99.90;;;;;;5072164;28;20416;-70
2024/01/18 03:52:32;;;;;;;5.13;1.70;;;-1.60;99.90;;;;;;5073634;28;20094;-70
2024/01/18 03:54:58;;;;;;;5.75;1.90;;;-1.70;99.90;;;;;;5072286;28;20043;-69
2024/01/18 03:57:25;;;;;;;4.22;1.45;;;-1.70;99.90;;;;;;5072296;28;20119;-69
2024/01/18 03:59:51;;;;;;;6.50;1.50;;;-1.60;99.90;;;;;;5073503;28;20037;-69
2024/01/18 04:02:16;;;;;;;4.05;1.30;;;-1.70;99.90;;;;;;5072673;28;20067;-69
2024/01/18 04:04:42;;;;;;;4.35;1.48;;;-1.70;99.90;;;;;;5073379;28;20044;-69
2024/01/18 04:07:08;;;;;;;5.00;1.48;;;-1.80;99.90;;;;;;5071802;28;20052;-69
2024/01/18 04:09:33;;;;;;;6.13;1.70;;;-1.80;99.90;;;;;;5072218;28;20037;-69
2024/01/18 04:11:59;;;;;;;4.68;1.58;;;-1.80;99.90;;;;;;5073178;28;20075;-69
2024/01/18 04:14:25;;;;;;;5.50;1.60;;;-1.80;99.90;;;;;;5071812;28;20481;-69
2024/01/18 04:16:50;;;;;;;5.95;1.60;;;-1.70;99.90;;;;;;5072098;28;20040;-69
2024/01/18 04:19:16;;;;;;;5.07;1.50;;;-1.70;99.90;;;;;;5073331;28;20560;-69
2024/01/18 04:21:43;;;;;;;5.53;1.98;;;-1.70;99.90;;;;;;5073301;28;20588;-69
2024/01/18 04:24:10;;;;;;;6.82;1.60;;;-1.70;99.90;;;;;;5071661;28;20053;-69
2024/01/18 04:26:36;;;;;;;7.13;1.45;;;-1.80;99.90;;;;;;5071537;28;20431;-70
2024/01/18 04:29:02;;;;;;;5.35;1.73;;;-1.70;99.90;;;;;;5071755;28;20050;-70
2024/01/18 04:31:28;;;;;;;5.82;1.27;;;-1.70;99.90;;;;;;5073258;28;20033;-70
2024/01/18 04:33:56;;;;;;;8.80;1.50;;;-1.70;99.90;;;;;;5071626;28;20420;-70
2024/01/18 04:36:22;;;;;;;4.47;1.50;;;-1.60;99.90;;;;;;5072883;28;20036;-70
2024/01/18 04:38:47;;;;;;;4.60;1.33;;;-1.70;99.90;;;;;;5073125;28;20047;-70
2024/01/18 04:41:15;;;;;;;5.47;1.55;;;-1.60;99.90;;;;;;5071665;28;20045;-70
2024/01/18 04:43:40;;;;;;;5.40;1.30;;;-1.60;99.90;;;;;;5072897;28;20040;-70
2024/01/18 04:46:09;;;;;;;3.55;1.17;;;-1.70;99.90;;;;;;5071521;28;20043;-70
2024/01/18 04:48:36;;;;;;;6.03;1.33;;;-1.70;99.90;;;;;;5072997;28;20040;-70
2024/01/18 04:51:03;;;;;;;5.72;1.42;;;-1.60;99.90;;;;;;5071710;28;20063;-70
2024/01/18 04:53:29;;;;;;;30.17;13.68;;;-1.60;99.90;;;;;;5071733;28;20036;-70
2024/01/18 04:55:55;;;;;;;35.42;15.30;;;-1.70;99.90;;;;;;5071376;28;20039;-70
2024/01/18 04:58:22;;;;;;;33.47;15.23;;;-1.70;99.90;;;;;;5071767;28;20044;-70
2024/01/18 05:00:48;;;;;;;34.10;16.00;;;-1.70;99.90;;;;;;5071419;28;20040;-70
2024/01/18 05:03:14;;;;;;;28.63;14.10;;;-1.70;99.90;;;;;;5071669;28;20044;-70
2024/01/18 05:05:40;;;;;;;29.13;13.68;;;-1.80;99.90;;;;;;5072793;28;20042;-70
2024/01/18 05:08:07;;;;;;;19.63;10.50;;;-1.80;99.90;;;;;;5071241;28;20036;-70
2024/01/18 05:10:33;;;;;;;16.38;6.30;;;-1.80;99.90;;;;;;5071320;28;20070;-70
2024/01/18 05:12:58;;;;;;;11.40;4.95;;;-1.80;99.90;;;;;;5074266;28;20041;-70
2024/01/18 05:15:25;;;;;;;17.50;8.18;;;-1.90;99.90;;;;;;5074887;28;20028;-70
2024/01/18 05:17:51;;;;;;;16.10;6.75;;;-1.80;99.90;;;;;;5074985;28;20055;-70
2024/01/18 05:20:17;;;;;;;16.55;7.65;;;-1.90;99.90;;;;;;5076413;28;20040;-70
2024/01/18 05:22:43;;;;;;;12.85;4.15;;;-2.00;99.90;;;;;;5075128;28;20044;-70
2024/01/18 05:25:09;;;;;;;7.28;2.90;;;-2.00;99.90;;;;;;5074732;28;20519;-70
2024/01/18 05:27:36;;;;;;;9.45;2.95;;;-2.10;99.90;;;;;;5076221;28;20032;-70
2024/01/18 05:30:04;;;;;;;8.10;2.58;;;-2.10;99.90;;;;;;5076254;28;20094;-70
2024/01/18 05:32:30;;;;;;;7.03;2.50;;;-2.00;99.90;;;;;;5074653;28;20037;-70
2024/01/18 05:34:56;;;;;;;6.88;2.60;;;-2.10;99.90;;;;;;5074600;28;20045;-70
2024/01/18 05:37:24;;;;;;;7.13;2.10;;;-2.00;99.90;;;;;;5076139;28;20039;-70
2024/01/18 05:39:50;;;;;;;7.20;2.03;;;-2.00;99.90;;;;;;5076078;28;20036;-70
2024/01/18 05:42:18;;;;;;;5.22;1.42;;;-2.00;99.90;;;;;;5074537;28;20041;-70
2024/01/18 05:44:47;;;;;;;4.70;1.33;;;-2.10;99.90;;;;;;5075518;28;20045;-70
2024/01/18 05:47:13;;;;;;;7.32;1.70;;;-2.10;99.90;;;;;;5074612;28;20139;-70
2024/01/18 05:49:39;;;;;;;5.85;2.00;;;-2.10;99.90;;;;;;5074386;28;20529;-70
2024/01/18 05:52:05;;;;;;;6.50;2.00;;;-2.10;99.90;;;;;;5075845;28;20081;-70
2024/01/18 05:54:31;;;;;;;6.28;1.45;;;-2.00;99.90;;;;;;5074523;28;20119;-70
2024/01/18 05:56:56;;;;;;;5.03;1.20;;;-2.10;99.90;;;;;;5074527;28;20053;-70
2024/01/18 05:59:22;;;;;;;10.38;1.50;;;-2.10;99.90;;;;;;5074247;28;20040;-70
2024/01/18 06:01:47;;;;;;;7.70;1.42;;;-2.10;99.90;;;;;;5074532;28;20110;-70
2024/01/18 06:04:13;;;;;;;6.57;1.10;;;-2.10;99.90;;;;;;5075597;28;20055;-70
2024/01/18 06:06:39;;;;;;;3.88;1.00;;;-2.10;99.90;;;;;;5073998;28;20111;-70
2024/01/18 06:09:05;;;;;;;5.78;1.35;;;-2.10;99.90;;;;;;5073993;28;20049;-70
2024/01/18 06:11:30;;;;;;;3.42;1.00;;;-2.00;99.90;;;;;;5075514;28;20043;-70
2024/01/18 06:13:56;;;;;;;5.28;1.05;;;-2.00;99.90;;;;;;5075397;28;20072;-70
2024/01/18 06:16:21;;;;;;;5.30;1.17;;;-2.00;99.90;;;;;;5075437;28;20044;-70
2024/01/18 06:18:47;;;;;;;5.13;1.10;;;-2.00;99.90;;;;;;5075093;28;20041;-70
2024/01/18 06:21:13;;;;;;;3.58;1.08;;;-2.00;99.90;;;;;;5073825;28;20037;-70
2024/01/18 06:23:42;;;;;;;3.33;0.80;;;-2.00;99.90;;;;;;5073363;28;20044;-70
2024/01/18 06:26:10;;;;;;;7.32;1.00;;;-1.90;99.90;;;;;;5073538;28;20040;-70
2024/01/18 06:28:37;;;;;;;3.55;0.77;;;-1.90;99.90;;;;;;5073725;28;20101;-70
2024/01/18 06:31:03;;;;;;;3.45;0.82;;;-1.90;99.90;;;;;;5073973;28;20101;-70
2024/01/18 06:33:28;;;;;;;2.58;0.95;;;-2.00;99.90;;;;;;5073576;28;20481;-70
2024/01/18 06:35:54;;;;;;;4.10;1.10;;;-2.00;99.90;;;;;;5073469;28;20080;-70
2024/01/18 06:38:22;;;;;;;2.97;0.77;;;-2.00;99.90;;;;;;5074968;28;20044;-70
2024/01/18 06:40:48;;;;;;;2.70;0.80;;;-2.00;99.90;;;;;;5073428;28;20048;-70
2024/01/18 06:43:17;;;;;;;4.45;0.90;;;-2.00;99.90;;;;;;5056585;28;20044;-70
2024/01/18 06:45:42;;;;;;;5.07;0.70;;;-2.00;99.90;;;;;;5056578;28;20386;-70
2024/01/18 06:48:09;;;;;;;2.20;0.77;;;-1.90;99.90;;;;;;5074730;28;20043;-70
2024/01/18 06:50:35;;;;;;;5.75;1.23;;;-1.90;99.90;;;;;;5073189;28;20451;-70
2024/01/18 06:53:03;;;;;;;1.55;0.57;;;-1.90;99.90;;;;;;5074739;28;20052;-70
2024/01/18 06:55:29;;;;;;;4.65;0.95;;;-1.90;99.90;;;;;;5074538;28;20045;-70
2024/01/18 06:57:54;;;;;;;3.42;0.70;;;-1.90;99.90;;;;;;5073065;28;20047;-70
2024/01/18 07:00:24;;;;;;;4.03;0.88;;;-1.90;99.90;;;;;;5073044;28;20041;-70
2024/01/18 07:02:53;;;;;;;4.88;0.70;;;-1.90;99.90;;;;;;5074477;28;20033;-70
2024/01/18 07:05:19;;;;;;;4.82;1.00;;;-1.90;99.90;;;;;;5073098;28;20107;-70
2024/01/18 07:07:45;;;;;;;6.00;0.95;;;-1.90;99.90;;;;;;5074328;28;20499;-70
2024/01/18 07:10:10;;;;;;;9.43;1.20;;;-1.90;99.90;;;;;;5074359;28;20037;-70
2024/01/18 07:12:36;;;;;;;5.78;1.23;;;-1.80;99.90;;;;;;5072776;28;20036;-70
2024/01/18 07:15:02;;;;;;;5.88;0.85;;;-1.90;99.90;;;;;;5072678;28;20043;-70
2024/01/18 07:17:27;;;;;;;4.22;0.93;;;-1.80;99.90;;;;;;5074233;28;20032;-70
2024/01/18 07:19:56;;;;;;;6.40;0.90;;;-1.80;99.90;;;;;;5072891;28;20052;-70
2024/01/18 07:22:25;;;;;;;4.72;0.90;;;-1.80;99.90;;;;;;5072837;28;20110;-70
2024/01/18 07:24:54;;;;;;;2.75;0.70;;;-1.80;99.90;;;;;;5073984;28;20067;-70
2024/01/18 07:27:20;;;;;;;5.30;0.63;;;-1.80;99.90;;;;;;5072634;28;20040;-70
2024/01/18 07:29:49;;;;;;;4.70;0.95;;;-1.80;99.90;;;;;;5072459;28;20454;-70
2024/01/18 07:32:15;;;;;;;5.13;0.80;;;-1.80;99.90;;;;;;5073888;28;20037;-70
2024/01/18 07:34:40;;;;;;;3.35;0.88;;;-1.90;99.90;;;;;;5072307;28;20049;-70
2024/01/18 07:37:08;;;;;;;2.92;0.65;;;-1.80;99.90;;;;;;5072465;28;20054;-70
2024/01/18 07:39:34;;;;;;;8.93;0.90;;;-1.80;99.90;;;;;;5072548;28;20041;-70
2024/01/18 07:42:00;;;;;;;5.45;0.80;;;-1.90;99.90;;;;;;5073773;28;20041;-70
2024/01/18 07:44:27;;;;;;;5.00;0.80;;;-1.90;99.90;;;;;;5072027;28;20132;-70
2024/01/18 07:46:53;;;;;;;4.20;0.63;;;-1.90;99.90;;;;;;5072090;28;20456;-70
2024/01/18 07:49:20;;;;;;;5.10;1.25;;;-1.80;99.90;;;;;;5072389;28;20036;-70
2024/01/18 07:51:46;;;;;;;7.20;1.20;;;-1.80;99.90;;;;;;5072116;28;20085;-70
2024/01/18 07:54:11;;;;;;;5.35;0.90;;;-1.90;99.90;;;;;;5073200;28;20111;-70
2024/01/18 07:56:37;;;;;;;4.70;0.73;;;-1.90;99.90;;;;;;5073613;28;20035;-70
2024/01/18 07:59:02;;;;;;;5.30;1.40;;;-1.90;99.90;;;;;;5073575;28;20141;-70
2024/01/18 08:01:28;;;;;;;4.03;1.20;;;-1.80;99.90;;;;;;5073293;28;20048;-70
2024/01/18 08:03:53;;;;;;;5.00;1.30;;;-1.80;99.90;;;;;;5071882;28;20036;-70
2024/01/18 08:06:19;;;;;;;4.95;1.10;;;-1.90;99.90;;;;;;5071932;28;20079;-70
2024/01/18 08:08:45;;;;;;;8.23;1.58;;;-1.80;99.90;;;;;;5072967;28;20059;-70
2024/01/18 08:11:12;;;;;;;4.32;1.00;;;-1.80;99.90;;;;;;5073454;28;20422;-70
2024/01/18 08:13:38;;;;;;;4.10;1.00;;;-1.80;99.90;;;;;;5071872;28;20032;-70
2024/01/18 08:16:03;;;;;;;7.60;1.45;;;-1.80;99.90;;;;;;5071772;28;20114;-70
2024/01/18 08:18:29;;;;;;;5.60;1.52;;;-1.70;99.90;;;;;;5073120;28;20037;-70
2024/01/18 08:20:54;;;;;;;8.38;1.52;;;-1.70;99.90;;;;;;5073323;28;20512;-70
2024/01/18 08:23:23;;;;;;;4.72;1.52;;;-1.70;99.90;;;;;;5073283;28;20044;-70
2024/01/18 08:25:49;;;;;;;5.07;1.50;;;-1.70;99.90;;;;;;5073198;28;20044;-70
2024/01/18 08:28:14;;;;;;;6.15;2.08;;;-1.70;99.90;;;;;;5071795;28;20036;-70
2024/01/18 08:30:40;;;;;;;9.00;4.05;;;-1.70;99.90;;;;;;5073214;28;20554;-70
2024/01/18 08:33:08;;;;;;;2.83;1.25;;;-1.60;99.90;;;;;;5072008;28;20033;-70
2024/01/18 08:35:34;;;;;;;4.25;1.10;;;-1.60;99.90;;;;;;5071681;28;20413;-70
2024/01/18 08:38:00;;;;;;;6.68;1.02;;;-1.50;99.90;;;;;;5055311;28;20040;-70
2024/01/18 08:40:26;;;;;;;5.80;1.35;;;-1.50;99.90;;;;;;5072115;28;20049;-70
2024/01/18 08:42:52;;;;;;;3.53;0.90;;;-1.50;99.90;;;;;;5071620;28;20083;-70
2024/01/18 08:45:18;;;;;;;4.78;0.88;;;-1.40;99.90;;;;;;5072620;28;20076;-70
2024/01/18 08:47:44;;;;;;;4.75;0.82;;;-1.40;99.90;;;;;;5072666;28;20036;-70
2024/01/18 08:50:10;;;;;;;3.20;0.73;;;-1.40;99.90;;;;;;5075511;28;20090;-70
2024/01/18 08:52:36;;;;;;;5.70;0.77;;;-1.30;99.90;;;;;;5075454;28;20036;-70
2024/01/18 08:55:02;;;;;;;3.50;0.88;;;-1.30;99.90;;;;;;5075329;28;20083;-70
2024/01/18 08:57:29;;;;;;;7.10;1.02;;;-1.20;99.90;;;;;;5076927;28;20111;-70
2024/01/18 08:59:55;;;;;;;4.13;1.13;;;-1.20;99.90;;;;;;5076887;28;20080;-70
2024/01/18 09:02:21;;;;;;;4.75;1.00;;;-1.10;99.90;;;;;;5076821;28;20095;-70
2024/01/18 09:04:46;;;;;;;4.68;0.77;;;-1.00;99.90;;;;;;5075095;28;20047;-70
2024/01/18 09:07:12;;;;;;;4.75;0.90;;;-1.00;99.90;;;;;;5075101;28;20036;-70
2024/01/18 09:09:38;;;;;;;5.32;0.85;;;-1.00;99.90;;;;;;5075225;28;20040;-70
2024/01/18 09:12:04;;;;;;;4.28;0.88;;;-0.90;99.90;;;;;;5075324;28;20044;-70
2024/01/18 09:14:29;;;;;;;4.97;0.88;;;-0.80;99.90;;;;;;5075212;28;20033;-70
2024/01/18 09:16:55;;;;;;;3.63;0.75;;;-0.70;99.90;;;;;;5076497;28;20117;-70
2024/01/18 09:19:20;;;;;;;5.38;0.90;;;-0.60;99.90;;;;;;5075220;28;20036;-70
2024/01/18 09:21:46;;;;;;;6.25;0.85;;;-0.50;99.90;;;;;;5075024;28;20490;-70
2024/01/18 09:24:13;;;;;;;3.08;0.70;;;-0.40;99.90;;;;;;5075313;28;20036;-70
2024/01/18 09:26:39;;;;;;;3.08;0.65;;;-0.30;99.90;;;;;;5075136;28;20067;-70
2024/01/18 09:29:05;;;;;;;4.65;0.80;;;-0.30;99.90;;;;;;5076493;28;20477;-70
2024/01/18 09:31:31;;;;;;;3.40;0.82;;;-0.20;99.90;;;;;;5074813;28;20044;-70
2024/01/18 09:33:57;;;;;;;7.47;0.93;;;-0.20;99.90;;;;;;5076145;28;20032;-70
2024/01/18 09:36:23;;;;;;;4.80;0.75;;;-0.20;99.90;;;;;;5074920;28;20036;-70
2024/01/18 09:38:49;;;;;;;4.55;0.90;;;-0.20;99.90;;;;;;5074910;28;20493;-70
2024/01/18 09:41:19;;;;;;;6.25;0.85;;;-0.20;99.90;;;;;;5075016;28;20040;-70
2024/01/18 09:43:45;;;;;;;5.15;0.80;;;-0.10;99.90;;;;;;5074536;28;20041;-70
2024/01/18 09:46:11;;;;;;;4.20;0.95;;;-0.10;99.90;;;;;;5074611;28;20473;-70
2024/01/18 09:48:37;;;;;;;5.47;0.88;;;-0.10;99.90;;;;;;5074402;28;20118;-70
2024/01/18 09:51:09;;;;;;;8.40;1.08;;;0.00;99.90;;;;;;5074397;28;20123;-70
2024/01/18 09:53:36;;;;;;;8.60;1.05;;;0.10;99.90;;;;;;5074649;28;20072;-70
2024/01/18 09:56:19;;;;;;;4.85;0.98;;;0.10;99.90;;;;;;5074219;28;20044;-70
2024/01/18 09:58:45;;;;;;;4.50;0.60;;;0.20;99.90;;;;;;5074600;28;20410;-69
2024/01/18 10:01:18;;;;;;;5.43;0.75;;;0.20;99.90;;;;;;5075357;28;20036;-69
2024/01/18 10:03:44;;;;;;;4.88;0.88;;;0.30;99.90;;;;;;5075781;28;20036;-70
2024/01/18 10:06:09;;;;;;;6.18;1.00;;;0.40;99.90;;;;;;5075553;28;20066;-69
2024/01/18 10:08:35;;;;;;;7.07;1.00;;;0.50;99.90;;;;;;5075506;28;20036;-69
2024/01/18 10:11:01;;;;;;;5.68;0.80;;;0.60;99.90;;;;;;5075567;28;20083;-69
2024/01/18 10:13:26;;;;;;;6.38;1.00;;;0.60;99.90;;;;;;5074269;28;20044;-69
2024/01/18 10:15:52;;;;;;;6.47;1.02;;;0.70;99.90;;;;;;5075412;28;20366;-69
2024/01/18 10:18:18;;;;;;;3.88;0.90;;;0.90;99.90;;;;;;5074173;28;20512;-69
2024/01/18 10:20:46;;;;;;;4.80;1.02;;;1.00;99.90;;;;;;5075373;28;20044;-69
2024/01/18 10:23:12;;;;;;;5.63;0.95;;;1.20;99.90;;;;;;5074053;28;20051;-69
2024/01/18 10:25:39;;;;;;;4.47;0.80;;;1.30;99.90;;;;;;5076208;28;20381;-68
2024/01/18 10:28:05;;;;;;;4.57;1.00;;;1.50;99.90;;;;;;5073811;28;20039;-68
2024/01/18 10:30:32;;;;;;;3.70;0.80;;;1.60;99.90;;;;;;5075196;28;20401;-68
2024/01/18 10:33:00;;;;;;;6.00;0.80;;;1.60;99.90;;;;;;5057219;28;20178;-68
2024/01/18 10:35:28;;;;;;;4.68;1.00;;;1.70;99.90;;;;;;5056912;28;20040;-68
2024/01/18 10:38:04;;;;;;;5.72;1.00;;;1.80;99.90;;;;;;5073534;28;20051;-68
2024/01/18 10:40:34;;;;;;;4.00;0.95;;;1.90;99.90;;;;;;5056821;28;20412;-68
2024/01/18 10:43:01;;;;;;;5.65;1.02;;;2.10;99.90;;;;;;5073688;28;20048;-68
2024/01/18 10:45:28;;;;;;;3.88;0.90;;;2.10;99.90;;;;;;5073251;28;20041;-68
2024/01/18 10:47:56;;;;;;;6.72;1.17;;;2.20;99.90;;;;;;5073266;28;20036;-68
2024/01/18 10:50:22;;;;;;;6.50;1.10;;;2.20;99.90;;;;;;5073483;28;20467;-68
2024/01/18 10:52:48;;;;;;;4.88;0.90;;;2.20;99.90;;;;;;5074715;28;20068;-68
2024/01/18 10:55:13;;;;;;;5.53;0.93;;;2.30;99.90;;;;;;5074628;28;20035;-68
2024/01/18 10:57:40;;;;;;;5.13;1.15;;;2.20;99.90;;;;;;5073155;28;20100;-68
2024/01/18 11:00:07;;;;;;;3.42;0.93;;;2.40;99.90;;;;;;5073054;28;20083;-68
2024/01/18 11:02:40;;;;;;;7.20;1.00;;;2.50;99.90;;;;;;5073047;28;20520;-68
2024/01/18 11:05:10;;;;;;;6.03;1.00;;;2.60;99.90;;;;;;5073147;28;20062;-68
2024/01/18 11:07:40;;;;;;;4.72;0.88;;;2.70;99.90;;;;;;5072845;28;20447;-68
2024/01/18 11:10:11;;;;;;;7.00;1.05;;;2.80;99.90;;;;;;5073994;28;20037;-68
2024/01/18 11:12:41;;;;;;;6.05;0.90;;;2.80;99.90;;;;;;5074398;28;20045;-68
2024/01/18 11:15:10;;;;;;;3.78;0.80;;;2.80;99.90;;;;;;5072691;28;20045;-68
2024/01/18 11:17:42;;;;;;;5.32;0.93;;;2.90;99.90;;;;;;5074223;28;20040;-71
2024/01/18 11:20:09;;;;;;;5.07;0.80;;;2.90;99.90;;;;;;5074234;28;20048;-67
2024/01/18 11:22:35;;;;;;;4.68;1.42;;;3.00;99.90;;;;;;5072806;28;20095;-68
2024/01/18 11:25:09;;;;;;;9.27;0.80;;;2.90;99.90;;;;;;5055884;28;20494;-67
2024/01/18 11:27:41;;;;;;;7.68;0.90;;;3.00;99.90;;;;;;5074003;28;20075;-67
2024/01/18 11:30:12;;;;;;;3.67;0.98;;;3.20;99.90;;;;;;5073992;28;20036;-67
2024/01/18 11:32:38;;;;;;;5.35;0.80;;;4.10;99.90;;;;;;5072406;28;20516;-67
2024/01/18 11:35:10;;;;;;;4.20;1.08;;;5.40;99.90;;;;;;5072309;28;20051;-68
2024/01/18 11:37:35;;;;;;;2.33;0.68;;;6.40;99.90;;;;;;5072391;28;20174;-68
2024/01/18 11:40:01;;;;;;;4.07;0.73;;;7.00;99.90;;;;;;5072614;28;20139;-68
2024/01/18 11:42:28;;;;;;;8.70;1.00;;;7.00;99.90;;;;;;5072570;28;20497;-68
2024/01/18 11:44:55;;;;;;;5.70;0.90;;;7.00;99.90;;;;;;5073279;28;20185;-68
2024/01/18 11:47:33;;;;;;;5.50;1.10;;;6.90;99.90;;;;;;5072570;28;20127;-68
2024/01/18 11:50:01;;;;;;;4.40;1.00;;;6.60;99.90;;;;;;5072631;28;20043;-68
2024/01/18 11:52:30;;;;;;;4.05;0.70;;;6.10;99.90;;;;;;5072185;28;20120;-68
2024/01/18 11:54:56;;;;;;;6.82;1.48;;;5.50;99.90;;;;;;5072493;28;20496;-68
2024/01/18 11:57:23;;;;;;;6.85;1.40;;;5.10;99.90;;;;;;5072221;28;20090;-68
2024/01/18 11:59:49;;;;;;;6.22;1.17;;;5.10;99.90;;;;;;5073610;28;20173;-68
2024/01/18 12:02:15;;;;;;;3.13;0.73;;;5.10;99.90;;;;;;5072424;28;20509;-68
2024/01/18 12:04:41;;;;;;;4.55;0.77;;;5.20;99.90;;;;;;5073536;28;20075;-69
2024/01/18 12:07:08;;;;;;;5.40;0.80;;;5.60;99.90;;;;;;5072105;28;20480;-68
2024/01/18 12:09:34;;;;;;;4.40;0.68;;;6.70;99.90;;;;;;5072103;28;20037;-68
2024/01/18 12:12:01;;;;;;;4.82;1.00;;;7.40;99.90;;;;;;5073278;28;20058;-68
2024/01/18 12:14:27;;;;;;;4.32;0.80;;;7.80;99.90;;;;;;5073213;28;20413;-68
2024/01/18 12:16:53;;;;;;;2.83;0.60;;;7.90;99.90;;;;;;5073420;28;20512;-68
2024/01/18 12:19:37;;;;;;;2.50;0.60;;;8.00;99.90;;;;;;5071836;28;20044;-68
2024/01/18 12:22:06;;;;;;;6.88;1.05;;;8.20;99.90;;;;;;5072549;28;20036;-68
2024/01/18 12:24:32;;;;;;;4.78;0.80;;;8.20;99.90;;;;;;5071693;28;20036;-68
2024/01/18 12:26:58;;;;;;;1.98;0.60;;;8.50;99.90;;;;;;5073205;28;20044;-69
2024/01/18 12:29:24;;;;;;;3.92;0.90;;;9.00;99.90;;;;;;5072001;28;20075;-69
2024/01/18 12:31:50;;;;;;;4.45;0.60;;;9.10;99.90;;;;;;5073228;28;20044;-69
2024/01/18 12:34:19;;;;;;;2.53;0.70;;;9.60;99.90;;;;;;5071573;28;20049;-69
2024/01/18 12:36:46;;;;;;;3.25;0.98;;;10.90;99.90;;;;;;5072878;28;20524;-69
2024/01/18 12:39:12;;;;;;;4.03;0.57;;;12.20;99.50;;;;;;5071920;28;20086;-69
2024/01/18 12:41:38;;;;;;;3.55;0.93;;;13.40;93.30;;;;;;5071644;28;20055;-69